Terminal Aerodrome Forecast
Issued by NWS Charleston, WV

Current Version | Previous Version | Graphics & Text | Print | Product List | Glossary On
Versions: 1 2 3 4 5 6 7 8 9 10 11 12 13 14 15 16 17 18 19 20 21 22 23
000
FTUS41 KRLX 271700
TAFEKN
TAF
KEKN 271722Z 2718/2818 29003KT P6SM SKC
     FM280500 00000KT 5SM BR SCT250
     FM280800 00000KT 1SM BR FEW001
     FM280900 00000KT 1/4SM FG VV001
     FM281300 00000KT 3SM BR SCT200
     FM281500 00000KT P6SM SCT200=

USA.gov is the U.S. government's official web portal to all federal, state and local government web resources and services.